createdAt,value
2022-12-24T00:01:38.836Z,0.90
2022-12-24T00:04:05.905Z,1.30
2022-12-24T00:06:32.950Z,0.97
2022-12-24T00:08:59.965Z,5.03
2022-12-24T00:11:27.017Z,0.97
2022-12-24T00:13:54.155Z,1.50
2022-12-24T00:16:21.336Z,1.77
2022-12-24T00:18:48.431Z,3.37
2022-12-24T00:21:16.029Z,1.63
2022-12-24T00:23:43.272Z,2.43
2022-12-24T00:26:10.408Z,2.07
2022-12-24T00:28:37.448Z,2.87
2022-12-24T00:31:08.334Z,2.63
2022-12-24T00:33:35.409Z,2.33
2022-12-24T00:36:02.437Z,3.60
2022-12-24T00:38:29.529Z,2.33
2022-12-24T00:41:00.889Z,2.53
2022-12-24T00:43:28.432Z,2.40
2022-12-24T00:45:55.508Z,3.40
2022-12-24T00:48:22.971Z,2.20
2022-12-24T00:50:50.544Z,1.77
2022-12-24T00:53:17.836Z,2.30
2022-12-24T00:55:44.902Z,2.33
2022-12-24T00:58:11.951Z,2.57
2022-12-24T01:00:39.056Z,1.30
2022-12-24T01:03:06.217Z,1.10
2022-12-24T01:05:33.337Z,1.57
2022-12-24T01:08:00.359Z,0.97
2022-12-24T01:10:27.397Z,1.50
2022-12-24T01:12:54.455Z,1.57
2022-12-24T01:15:21.515Z,1.20
2022-12-24T01:17:48.628Z,1.23
2022-12-24T01:20:16.705Z,1.27
2022-12-24T01:22:43.868Z,1.00
2022-12-24T01:25:10.951Z,1.17
2022-12-24T01:27:38.138Z,0.90
2022-12-24T01:30:06.365Z,1.37
2022-12-24T01:32:33.402Z,1.30
2022-12-24T01:35:00.554Z,1.83
2022-12-24T01:37:27.715Z,1.73
2022-12-24T01:40:14.721Z,1.93
2022-12-24T01:43:01.213Z,2.60
2022-12-24T01:45:40.483Z,2.83
2022-12-24T01:48:10.304Z,1.20
2022-12-24T01:50:37.342Z,1.47
2022-12-24T01:53:04.546Z,1.33
2022-12-24T01:55:31.605Z,2.03
2022-12-24T01:57:58.986Z,1.30
2022-12-24T02:00:26.028Z,1.90
2022-12-24T02:02:53.411Z,2.23
2022-12-24T02:05:25.546Z,1.60
2022-12-24T02:07:52.636Z,3.00
2022-12-24T02:10:19.736Z,1.47
2022-12-24T02:12:46.782Z,1.60
2022-12-24T02:15:14.316Z,1.50
2022-12-24T02:17:47.797Z,1.30
2022-12-24T02:20:27.002Z,2.13
2022-12-24T02:23:03.058Z,1.63
2022-12-24T02:25:48.702Z,2.10
2022-12-24T02:28:26.350Z,0.97
2022-12-24T02:30:54.235Z,1.27
2022-12-24T02:33:26.169Z,1.97
2022-12-24T02:36:05.252Z,1.40
2022-12-24T02:38:33.409Z,0.93
2022-12-24T02:41:20.510Z,1.50
2022-12-24T02:43:48.686Z,1.20
2022-12-24T02:46:16.985Z,2.90
2022-12-24T02:48:44.204Z,1.30
2022-12-24T02:51:11.437Z,2.07
2022-12-24T02:53:38.664Z,1.30
2022-12-24T02:56:24.576Z,3.43
2022-12-24T02:59:00.424Z,1.53
2022-12-24T03:01:40.079Z,3.07
2022-12-24T03:04:39.862Z,1.90
2022-12-24T03:07:08.165Z,2.43
2022-12-24T03:09:39.734Z,2.40
2022-12-24T03:12:08.382Z,1.90
2022-12-24T03:14:35.409Z,1.30
2022-12-24T03:17:02.590Z,1.00
2022-12-24T03:19:29.662Z,0.83
2022-12-24T03:21:57.337Z,3.70
2022-12-24T03:24:24.551Z,1.80
2022-12-24T03:26:51.582Z,1.33
2022-12-24T03:29:18.643Z,1.83
2022-12-24T03:31:49.966Z,1.20
2022-12-24T03:34:17.448Z,1.70
2022-12-24T03:36:44.648Z,2.93
2022-12-24T03:39:11.900Z,1.43
2022-12-24T03:41:39.376Z,1.17
2022-12-24T03:44:06.429Z,0.90
2022-12-24T03:46:33.514Z,1.43
2022-12-24T03:49:00.594Z,1.17
2022-12-24T03:51:28.346Z,1.67
2022-12-24T03:53:57.141Z,1.17
2022-12-24T03:56:24.484Z,3.70
2022-12-24T03:58:51.571Z,1.70
2022-12-24T04:01:18.799Z,2.33
2022-12-24T04:03:45.930Z,2.00
2022-12-24T04:06:14.323Z,1.20
2022-12-24T04:08:41.399Z,1.73
2022-12-24T04:11:10.125Z,1.50
2022-12-24T04:13:37.322Z,2.27
2022-12-24T04:16:06.051Z,1.43
2022-12-24T04:18:33.155Z,1.80
2022-12-24T04:21:00.266Z,2.10
2022-12-24T04:23:27.337Z,2.20
2022-12-24T04:25:54.346Z,1.53
2022-12-24T04:28:21.411Z,1.60
2022-12-24T04:30:48.444Z,2.43
2022-12-24T04:33:15.518Z,1.37
2022-12-24T04:35:42.538Z,0.93
2022-12-24T04:38:09.909Z,1.70
2022-12-24T04:40:37.023Z,2.47
2022-12-24T04:43:04.048Z,3.57
2022-12-24T04:45:31.279Z,2.30
2022-12-24T04:47:58.380Z,2.10
2022-12-24T04:50:25.455Z,4.10
2022-12-24T04:52:52.458Z,3.83
2022-12-24T04:55:19.483Z,1.60
2022-12-24T04:57:52.658Z,1.33
2022-12-24T05:00:20.259Z,2.03
2022-12-24T05:02:47.425Z,2.70
2022-12-24T05:05:14.549Z,2.00
2022-12-24T05:07:41.600Z,5.23
2022-12-24T05:10:08.988Z,1.87
2022-12-24T05:12:36.023Z,3.90
2022-12-24T05:15:04.266Z,1.80
2022-12-24T05:17:31.359Z,2.47
2022-12-24T05:19:58.387Z,2.30
2022-12-24T05:22:44.114Z,3.40
2022-12-24T05:25:30.018Z,2.50
2022-12-24T05:27:57.145Z,3.60
2022-12-24T05:30:24.259Z,5.33
2022-12-24T05:32:51.275Z,3.23
2022-12-24T05:35:18.345Z,2.20
2022-12-24T05:37:45.395Z,3.00
2022-12-24T05:40:14.819Z,3.97
2022-12-24T05:42:41.856Z,2.10
2022-12-24T05:45:09.351Z,3.60
2022-12-24T05:47:42.870Z,5.40
2022-12-24T05:50:10.794Z,3.87
2022-12-24T05:52:37.880Z,3.83
2022-12-24T05:55:05.166Z,5.13
2022-12-24T05:57:32.304Z,3.40
2022-12-24T05:59:59.379Z,2.70
2022-12-24T06:02:26.545Z,6.40
2022-12-24T06:04:53.797Z,2.77
2022-12-24T06:07:20.938Z,1.73
2022-12-24T06:09:48.031Z,2.60
2022-12-24T06:12:15.177Z,2.73
2022-12-24T06:14:42.286Z,3.10
2022-12-24T06:17:09.432Z,2.33
2022-12-24T06:19:36.458Z,3.57
2022-12-24T06:22:03.510Z,2.13
2022-12-24T06:24:30.636Z,2.20
2022-12-24T06:26:57.688Z,2.43
2022-12-24T06:29:27.235Z,3.00
2022-12-24T06:31:54.598Z,2.87
2022-12-24T06:34:21.736Z,2.77
2022-12-24T06:36:48.811Z,2.90
2022-12-24T06:39:15.836Z,3.13
2022-12-24T06:41:42.906Z,3.20
2022-12-24T06:44:09.975Z,4.40
2022-12-24T06:46:37.158Z,3.90
2022-12-24T06:49:04.328Z,6.00
2022-12-24T06:51:31.370Z,8.93
2022-12-24T06:53:58.493Z,6.73
2022-12-24T06:56:25.536Z,9.40
2022-12-24T06:58:52.693Z,9.17
2022-12-24T07:01:20.370Z,2.70
2022-12-24T07:03:48.229Z,3.10
2022-12-24T07:06:35.716Z,3.87
2022-12-24T07:09:02.736Z,3.07
2022-12-24T07:11:29.963Z,4.00
2022-12-24T07:13:57.155Z,1.80
2022-12-24T07:16:24.411Z,2.37
2022-12-24T07:18:51.609Z,3.30
2022-12-24T07:21:18.686Z,3.80
2022-12-24T07:23:45.771Z,2.47
2022-12-24T07:26:12.804Z,3.80
2022-12-24T07:28:39.881Z,3.03
2022-12-24T07:31:07.019Z,2.03
2022-12-24T07:33:34.097Z,2.10
2022-12-24T07:36:05.222Z,1.80
2022-12-24T07:38:32.342Z,2.70
2022-12-24T07:40:59.626Z,11.80
2022-12-24T07:43:27.075Z,5.03
2022-12-24T07:45:57.836Z,3.23
2022-12-24T07:48:25.513Z,9.73
2022-12-24T07:50:52.652Z,3.10
2022-12-24T07:53:19.879Z,3.73
2022-12-24T07:55:46.951Z,3.20
2022-12-24T07:58:14.027Z,2.17
2022-12-24T08:00:41.072Z,2.10
2022-12-24T08:03:08.358Z,4.17
2022-12-24T08:05:38.704Z,6.53
2022-12-24T08:08:05.793Z,3.10
2022-12-24T08:10:32.853Z,4.80
2022-12-24T08:12:59.922Z,3.77
2022-12-24T08:15:27.063Z,2.70
2022-12-24T08:18:28.286Z,2.37
2022-12-24T08:20:55.413Z,2.17
2022-12-24T08:23:23.639Z,4.57
2022-12-24T08:25:50.744Z,2.10
2022-12-24T08:28:18.706Z,3.50
2022-12-24T08:30:45.846Z,4.07
2022-12-24T08:33:12.975Z,1.87
2022-12-24T08:35:40.054Z,4.57
2022-12-24T08:38:07.089Z,8.70
2022-12-24T08:40:34.189Z,15.97
2022-12-24T08:43:02.602Z,5.80
2022-12-24T08:45:32.026Z,14.90
2022-12-24T08:48:03.313Z,26.93
2022-12-24T08:50:30.437Z,62.80
2022-12-24T08:52:57.484Z,27.80
2022-12-24T08:55:24.575Z,51.20
2022-12-24T08:57:51.689Z,4.27
2022-12-24T09:00:20.441Z,14.33
2022-12-24T09:02:47.692Z,33.27
2022-12-24T09:05:14.874Z,8.23
2022-12-24T09:07:41.992Z,26.53
2022-12-24T09:10:09.505Z,10.80
2022-12-24T09:12:36.543Z,15.60
2022-12-24T09:15:04.531Z,15.47
2022-12-24T09:17:31.774Z,12.10
2022-12-24T09:19:58.896Z,14.30
2022-12-24T09:22:25.979Z,9.47
2022-12-24T09:24:54.640Z,3.80
2022-12-24T09:27:21.710Z,5.27
2022-12-24T09:29:48.930Z,5.77
2022-12-24T09:32:16.087Z,4.73
2022-12-24T09:34:43.230Z,2.77
2022-12-24T09:37:10.355Z,6.30
2022-12-24T09:39:37.503Z,2.03
2022-12-24T09:42:07.349Z,2.10
2022-12-24T09:44:34.413Z,3.53
2022-12-24T09:47:05.414Z,3.60
2022-12-24T09:49:41.205Z,3.47
2022-12-24T09:52:12.669Z,3.20
2022-12-24T09:54:47.781Z,6.10
2022-12-24T09:57:19.770Z,1.70
2022-12-24T09:59:47.511Z,1.50
2022-12-24T10:02:15.564Z,2.07
2022-12-24T10:04:42.954Z,2.23
2022-12-24T10:07:17.133Z,1.77
2022-12-24T10:09:50.640Z,4.00
2022-12-24T10:12:19.545Z,4.70
2022-12-24T10:14:49.814Z,2.43
2022-12-24T10:17:49.576Z,3.80
2022-12-24T10:20:19.549Z,7.23
2022-12-24T10:22:49.443Z,4.00
2022-12-24T10:25:23.773Z,4.73
2022-12-24T10:27:51.012Z,1.73
2022-12-24T10:30:19.757Z,1.50
2022-12-24T10:32:50.486Z,2.87
2022-12-24T10:35:17.702Z,2.23
2022-12-24T10:37:45.033Z,1.57
2022-12-24T10:40:16.754Z,1.33
2022-12-24T10:42:50.741Z,1.83
2022-12-24T10:45:19.398Z,2.73
2022-12-24T10:47:46.959Z,3.33
2022-12-24T10:50:16.446Z,1.63
2022-12-24T10:52:43.616Z,2.00
2022-12-24T10:55:19.604Z,6.33
2022-12-24T10:57:47.267Z,2.03
2022-12-24T11:00:21.254Z,4.10
2022-12-24T11:02:48.776Z,1.47
2022-12-24T11:05:29.933Z,3.03
2022-12-24T11:08:00.575Z,1.80
2022-12-24T11:10:27.800Z,1.90
2022-12-24T11:13:13.247Z,3.43
2022-12-24T11:15:42.104Z,2.33
2022-12-24T11:18:14.208Z,2.77
2022-12-24T11:20:41.295Z,3.23
2022-12-24T11:23:10.527Z,4.80
2022-12-24T11:25:39.067Z,2.00
2022-12-24T11:28:20.355Z,1.30
2022-12-24T11:30:56.380Z,1.87
2022-12-24T11:33:23.645Z,2.30
2022-12-24T11:35:52.455Z,1.97
2022-12-24T11:38:26.770Z,1.80
2022-12-24T11:41:07.313Z,2.13
2022-12-24T11:43:44.858Z,2.30
2022-12-24T11:46:16.442Z,3.43
2022-12-24T11:48:43.621Z,2.30
2022-12-24T11:51:26.704Z,2.90
2022-12-24T11:53:57.079Z,3.30
2022-12-24T11:56:30.241Z,1.50
2022-12-24T11:59:01.691Z,2.80
2022-12-24T12:01:28.737Z,2.43
2022-12-24T12:03:57.038Z,2.00
2022-12-24T12:06:24.213Z,3.20
2022-12-24T12:08:51.522Z,4.07
2022-12-24T12:11:18.728Z,3.90
2022-12-24T12:13:45.785Z,2.10
2022-12-24T12:16:15.991Z,0.87
2022-12-24T12:18:44.001Z,1.97
2022-12-24T12:21:13.138Z,1.17
2022-12-24T12:24:03.339Z,3.37
2022-12-24T12:26:32.082Z,4.43
2022-12-24T12:29:00.240Z,1.57
2022-12-24T12:31:41.937Z,2.07
2022-12-24T12:34:22.057Z,3.17
2022-12-24T12:36:49.715Z,1.73
2022-12-24T12:39:16.730Z,1.57
2022-12-24T12:41:50.075Z,3.10
2022-12-24T12:44:41.686Z,2.83
2022-12-24T12:47:17.919Z,1.40
2022-12-24T12:49:44.987Z,2.07
2022-12-24T12:52:12.076Z,1.43
2022-12-24T12:54:57.848Z,1.30
2022-12-24T12:57:25.200Z,1.60
2022-12-24T12:59:53.877Z,2.40
2022-12-24T13:02:34.029Z,2.10
2022-12-24T13:05:10.612Z,1.30
2022-12-24T13:07:49.804Z,1.90
2022-12-24T13:10:22.780Z,3.83
2022-12-24T13:12:52.786Z,4.10
2022-12-24T13:15:22.572Z,3.00
2022-12-24T13:18:01.735Z,2.70
2022-12-24T13:20:29.697Z,1.80
2022-12-24T13:23:03.434Z,2.57
2022-12-24T13:25:33.516Z,3.63
2022-12-24T13:28:15.407Z,2.50
2022-12-24T13:30:42.482Z,2.20
2022-12-24T13:33:13.170Z,3.23
2022-12-24T13:36:00.561Z,1.33
2022-12-24T13:38:27.712Z,3.77
2022-12-24T13:40:57.797Z,2.37
2022-12-24T13:43:24.859Z,4.47
2022-12-24T13:45:52.220Z,2.67
2022-12-24T13:48:23.552Z,2.27
2022-12-24T13:50:51.222Z,2.30
2022-12-24T13:53:32.485Z,2.23
2022-12-24T13:56:26.233Z,4.60
2022-12-24T13:58:54.292Z,1.27
2022-12-24T14:01:22.347Z,2.07
2022-12-24T14:03:49.994Z,3.87
2022-12-24T14:06:23.892Z,4.30
2022-12-24T14:08:51.134Z,5.00
2022-12-24T14:11:41.238Z,2.53
2022-12-24T14:14:08.257Z,2.50
2022-12-24T14:16:45.617Z,1.73
2022-12-24T14:19:17.103Z,3.53
2022-12-24T14:21:50.296Z,1.93
2022-12-24T14:24:21.527Z,1.43
2022-12-24T14:26:49.874Z,3.97
2022-12-24T14:29:24.434Z,2.43
2022-12-24T14:31:56.138Z,2.03
2022-12-24T14:34:23.314Z,1.50
2022-12-24T14:36:51.036Z,4.30
2022-12-24T14:39:31.911Z,3.80
2022-12-24T14:42:17.227Z,3.40
2022-12-24T14:44:47.088Z,3.63
2022-12-24T14:47:37.484Z,4.90
2022-12-24T14:50:23.658Z,2.37
2022-12-24T14:53:09.436Z,2.60
2022-12-24T14:55:41.701Z,3.20
2022-12-24T14:58:24.150Z,4.07
2022-12-24T15:00:51.346Z,4.10
2022-12-24T15:03:19.326Z,4.23
2022-12-24T15:05:46.417Z,6.10
2022-12-24T15:08:21.307Z,8.97
2022-12-24T15:10:51.237Z,12.30
2022-12-24T15:13:24.330Z,26.07
2022-12-24T15:15:52.883Z,16.07
2022-12-24T15:18:21.662Z,24.90
2022-12-24T15:20:49.354Z,12.00
2022-12-24T15:23:23.243Z,11.70
2022-12-24T15:25:50.275Z,8.57
2022-12-24T15:28:20.628Z,7.80
2022-12-24T15:30:47.926Z,8.70
2022-12-24T15:33:15.084Z,7.43
2022-12-24T15:35:45.241Z,10.60
2022-12-24T15:38:23.180Z,6.67
2022-12-24T15:40:50.395Z,7.77
2022-12-24T15:43:17.496Z,5.80
2022-12-24T15:45:51.052Z,15.40
2022-12-24T15:48:23.645Z,4.23
2022-12-24T15:50:51.785Z,6.43
2022-12-24T15:53:25.390Z,9.50
2022-12-24T15:56:02.724Z,6.60
2022-12-24T15:58:30.677Z,5.53
2022-12-24T16:01:10.086Z,5.17
2022-12-24T16:03:38.073Z,6.70
2022-12-24T16:06:05.891Z,5.33
2022-12-24T16:08:33.911Z,8.10
2022-12-24T16:11:09.184Z,3.80
2022-12-24T16:13:40.107Z,3.00
2022-12-24T16:16:11.574Z,2.27
2022-12-24T16:18:57.978Z,5.30
2022-12-24T16:21:26.449Z,4.27
2022-12-24T16:23:54.199Z,3.23
2022-12-24T16:26:21.413Z,5.50
2022-12-24T16:28:48.659Z,3.37
2022-12-24T16:31:19.952Z,2.87
2022-12-24T16:33:47.412Z,3.50
2022-12-24T16:36:14.622Z,3.20
2022-12-24T16:39:00.524Z,2.70
2022-12-24T16:41:27.625Z,6.40
2022-12-24T16:43:54.769Z,4.50
2022-12-24T16:46:21.982Z,11.60
2022-12-24T16:48:49.137Z,6.73
2022-12-24T16:51:16.165Z,5.97
2022-12-24T16:53:43.274Z,4.23
2022-12-24T16:56:10.336Z,3.63
2022-12-24T16:58:37.408Z,3.00
2022-12-24T17:01:08.625Z,3.70
2022-12-24T17:03:35.980Z,2.80
2022-12-24T17:06:05.269Z,2.00
2022-12-24T17:08:32.312Z,4.67
2022-12-24T17:10:59.339Z,10.37
2022-12-24T17:13:26.454Z,4.33
2022-12-24T17:15:53.611Z,4.20
2022-12-24T17:18:20.696Z,2.87
2022-12-24T17:20:57.181Z,2.60
2022-12-24T17:23:25.354Z,3.27
2022-12-24T17:25:52.463Z,3.13
2022-12-24T17:28:19.514Z,4.50
2022-12-24T17:30:46.708Z,4.67
2022-12-24T17:33:15.008Z,3.30
2022-12-24T17:35:42.514Z,5.03
2022-12-24T17:38:09.685Z,9.20
2022-12-24T17:40:36.703Z,5.40
2022-12-24T17:43:03.813Z,4.63
2022-12-24T17:45:30.897Z,3.90
2022-12-24T17:47:58.058Z,2.80
2022-12-24T17:50:25.298Z,7.63
2022-12-24T17:52:52.371Z,3.87
2022-12-24T17:55:19.481Z,3.10
2022-12-24T17:57:46.763Z,6.13
2022-12-24T18:00:14.317Z,2.90
2022-12-24T18:02:41.480Z,3.20
2022-12-24T18:05:08.863Z,4.80
2022-12-24T18:07:36.232Z,3.10
2022-12-24T18:10:04.780Z,3.27
2022-12-24T18:12:31.864Z,2.60
2022-12-24T18:14:58.928Z,4.47
2022-12-24T18:17:26.008Z,2.30
2022-12-24T18:19:53.108Z,4.50
2022-12-24T18:22:20.212Z,4.10
2022-12-24T18:24:47.337Z,3.07
2022-12-24T18:27:14.486Z,3.23
2022-12-24T18:29:42.470Z,3.57
2022-12-24T18:32:09.699Z,2.63
2022-12-24T18:34:37.060Z,4.90
2022-12-24T18:37:04.177Z,3.67
2022-12-24T18:39:31.244Z,3.50
2022-12-24T18:41:58.339Z,2.70
2022-12-24T18:44:25.913Z,3.37
2022-12-24T18:46:53.314Z,3.57
2022-12-24T18:49:20.455Z,3.70
2022-12-24T18:51:47.671Z,7.87
2022-12-24T18:54:14.726Z,4.47
2022-12-24T18:56:41.849Z,5.03
2022-12-24T18:59:09.988Z,4.80
2022-12-24T19:01:37.279Z,2.90
2022-12-24T19:04:04.615Z,2.93
2022-12-24T19:06:31.701Z,3.97
2022-12-24T19:09:00.610Z,3.10
2022-12-24T19:11:29.328Z,2.87
2022-12-24T19:13:58.104Z,4.63
2022-12-24T19:16:25.503Z,3.30
2022-12-24T19:18:52.712Z,4.13
2022-12-24T19:21:19.837Z,3.70
2022-12-24T19:23:47.027Z,2.80
2022-12-24T19:26:14.497Z,2.20
2022-12-24T19:28:41.648Z,2.07
2022-12-24T19:31:10.078Z,4.27
2022-12-24T19:33:44.264Z,4.67
2022-12-24T19:36:15.168Z,3.63
2022-12-24T19:38:42.273Z,2.47
2022-12-24T19:41:19.240Z,2.80
2022-12-24T19:43:46.958Z,2.63
2022-12-24T19:46:14.697Z,2.90
2022-12-24T19:48:42.073Z,2.93
2022-12-24T19:51:10.018Z,2.07
2022-12-24T19:53:37.183Z,2.20
2022-12-24T19:56:04.541Z,2.17
2022-12-24T19:58:32.703Z,3.60
2022-12-24T20:01:14.824Z,10.17
2022-12-24T20:03:42.856Z,4.80
2022-12-24T20:06:09.911Z,3.73
2022-12-24T20:08:37.463Z,3.53
2022-12-24T20:11:06.459Z,3.43
2022-12-24T20:13:33.996Z,5.00
2022-12-24T20:16:11.395Z,8.30
2022-12-24T20:18:38.500Z,2.07
2022-12-24T20:21:06.819Z,3.03
2022-12-24T20:23:33.920Z,2.43
2022-12-24T20:26:02.111Z,2.50
2022-12-24T20:28:29.776Z,2.83
2022-12-24T20:30:56.829Z,2.50
2022-12-24T20:33:24.050Z,3.00
2022-12-24T20:35:51.263Z,2.70
2022-12-24T20:38:18.298Z,2.43
2022-12-24T20:40:45.837Z,2.37
2022-12-24T20:43:13.218Z,3.20
2022-12-24T20:45:41.009Z,2.20
2022-12-24T20:48:08.329Z,3.10
2022-12-24T20:50:35.401Z,5.10
2022-12-24T20:53:02.534Z,2.50
2022-12-24T20:55:29.707Z,2.27
2022-12-24T20:57:56.775Z,3.33
2022-12-24T21:00:25.030Z,4.53
2022-12-24T21:02:52.492Z,3.40
2022-12-24T21:05:19.684Z,4.37
2022-12-24T21:07:47.977Z,3.40
2022-12-24T21:10:15.343Z,3.67
2022-12-24T21:12:48.738Z,4.80
2022-12-24T21:15:19.564Z,7.77
2022-12-24T21:17:47.012Z,5.50
2022-12-24T21:20:14.422Z,6.17
2022-12-24T21:22:41.606Z,4.83
2022-12-24T21:25:09.052Z,5.00
2022-12-24T21:27:36.123Z,6.57
2022-12-24T21:30:03.565Z,7.87
2022-12-24T21:32:30.669Z,8.10
2022-12-24T21:34:57.721Z,8.30
2022-12-24T21:37:24.819Z,6.43
2022-12-24T21:39:51.885Z,9.80
2022-12-24T21:42:18.999Z,8.13
2022-12-24T21:44:46.116Z,5.73
2022-12-24T21:47:13.303Z,4.57
2022-12-24T21:49:59.142Z,4.00
2022-12-24T21:52:26.194Z,4.40
2022-12-24T21:54:53.315Z,7.70
2022-12-24T21:57:39.279Z,3.70
2022-12-24T22:00:22.083Z,6.00
2022-12-24T22:02:49.869Z,6.30
2022-12-24T22:05:17.219Z,7.13
2022-12-24T22:08:02.907Z,7.37
2022-12-24T22:10:48.865Z,6.50
2022-12-24T22:13:15.969Z,4.87
2022-12-24T22:15:49.821Z,4.83
2022-12-24T22:18:17.638Z,4.40
2022-12-24T22:20:45.185Z,5.83
2022-12-24T22:23:12.783Z,4.03
2022-12-24T22:25:39.863Z,4.10
2022-12-24T22:28:07.071Z,4.10
2022-12-24T22:30:37.924Z,3.53
2022-12-24T22:33:05.456Z,5.70
2022-12-24T22:35:32.684Z,4.73
2022-12-24T22:38:00.523Z,4.03
2022-12-24T22:40:28.091Z,3.30
2022-12-24T22:42:55.371Z,3.60
2022-12-24T22:45:23.014Z,2.77
2022-12-24T22:47:50.580Z,3.70
2022-12-24T22:50:17.852Z,3.13
2022-12-24T22:52:44.909Z,3.03
2022-12-24T22:55:12.053Z,3.77
2022-12-24T22:57:39.308Z,3.97
2022-12-24T23:00:09.120Z,1.60
2022-12-24T23:02:36.349Z,4.00
2022-12-24T23:05:03.554Z,2.30
2022-12-24T23:07:30.782Z,3.17
2022-12-24T23:09:57.841Z,2.90
2022-12-24T23:12:48.153Z,2.90
2022-12-24T23:15:15.330Z,3.70
2022-12-24T23:17:42.381Z,2.80
2022-12-24T23:20:09.833Z,3.10
2022-12-24T23:22:37.108Z,2.77
2022-12-24T23:25:04.356Z,2.90
2022-12-24T23:27:31.472Z,3.27
2022-12-24T23:29:58.588Z,2.60
2022-12-24T23:32:25.703Z,2.27
2022-12-24T23:34:52.770Z,2.40
2022-12-24T23:37:19.858Z,2.23
2022-12-24T23:39:46.963Z,3.07
2022-12-24T23:42:14.033Z,3.30
2022-12-24T23:44:41.182Z,2.70
2022-12-24T23:47:08.376Z,4.03
2022-12-24T23:49:35.904Z,5.90
2022-12-24T23:52:03.330Z,6.23
2022-12-24T23:54:30.442Z,3.57
2022-12-24T23:56:57.601Z,6.13
2022-12-24T23:59:24.776Z,3.00
